TimeCDT,TemperatureF,Dew PointF,Humidity,Sea Level PressureIn,VisibilityMPH,Wind Direction,Wind SpeedMPH,Gust SpeedMPH,PrecipitationIn,Events,Conditions,WindDirDegrees,DateUTC
12:53 AM,55.9,50.0,80,29.82,10.0,South,5.8,-,N/A,,Clear,180,2013-10-01 05:53:00
1:53 AM,55.9,50.0,80,29.81,10.0,South,5.8,-,N/A,,Clear,170,2013-10-01 06:53:00
2:53 AM,57.9,51.1,78,29.80,10.0,South,9.2,-,N/A,,Clear,190,2013-10-01 07:53:00
3:53 AM,61.0,52.0,72,29.78,10.0,SSW,5.8,-,N/A,,Clear,200,2013-10-01 08:53:00
4:53 AM,60.1,54.0,80,29.79,10.0,SSW,9.2,-,N/A,,Clear,200,2013-10-01 09:53:00
5:53 AM,60.1,55.0,83,29.79,10.0,SSW,8.1,-,N/A,,Clear,210,2013-10-01 10:53:00
6:53 AM,60.1,55.9,86,29.79,10.0,SSW,9.2,-,N/A,,Clear,200,2013-10-01 11:53:00
7:53 AM,62.1,57.0,84,29.78,10.0,SSW,12.7,-,N/A,,Clear,200,2013-10-01 12:53:00
8:53 AM,64.9,57.9,78,29.76,10.0,SSW,15.0,25.3,N/A,,Clear,210,2013-10-01 13:53:00
9:53 AM,69.1,57.9,68,29.77,10.0,SSW,13.8,-,N/A,,Clear,200,2013-10-01 14:53:00
10:53 AM,73.0,57.9,59,29.76,10.0,SSW,16.1,26.5,N/A,,Clear,210,2013-10-01 15:53:00
11:53 AM,75.0,57.9,55,29.76,10.0,SW,13.8,26.5,N/A,,Clear,230,2013-10-01 16:53:00
12:53 PM,77.0,59.0,54,29.78,10.0,SW,11.5,20.7,N/A,,Clear,220,2013-10-01 17:53:00
1:53 PM,78.1,57.9,50,29.76,10.0,WSW,15.0,-,N/A,,Clear,240,2013-10-01 18:53:00
2:53 PM,80.1,57.9,47,29.77,10.0,SW,15.0,23.0,N/A,,Clear,220,2013-10-01 19:53:00
3:53 PM,81.0,57.9,45,29.77,10.0,WSW,11.5,20.7,N/A,,Clear,240,2013-10-01 20:53:00
4:53 PM,79.0,55.9,45,29.78,10.0,WSW,10.4,-,N/A,,Clear,250,2013-10-01 21:53:00
5:53 PM,75.9,54.0,46,29.81,10.0,WSW,8.1,-,N/A,,Clear,250,2013-10-01 22:53:00
6:53 PM,70.0,54.0,57,29.83,10.0,West,10.4,-,N/A,,Clear,260,2013-10-01 23:53:00
7:53 PM,70.0,53.1,55,29.86,10.0,West,9.2,-,N/A,,Clear,260,2013-10-02 00:53:00
8:53 PM,66.0,54.0,65,29.88,10.0,WSW,5.8,-,N/A,,Clear,250,2013-10-02 01:53:00
9:53 PM,63.0,53.1,70,29.90,10.0,WSW,5.8,-,N/A,,Clear,250,2013-10-02 02:53:00
10:53 PM,57.0,48.0,72,29.92,10.0,West,6.9,-,N/A,,Clear,270,2013-10-02 03:53:00
11:53 PM,53.1,44.1,71,29.94,10.0,West,5.8,-,N/A,,Clear,280,2013-10-02 04:53:00